createdAt,value
2022-10-30T05:00:31.698Z,998.88
2022-10-30T05:05:31.620Z,998.80
2022-10-30T05:10:31.549Z,998.82
2022-10-30T05:15:38.582Z,998.85
2022-10-30T05:20:31.449Z,998.73
2022-10-30T05:25:31.394Z,998.63
2022-10-30T05:30:31.340Z,998.57
2022-10-30T05:35:31.305Z,998.49
2022-10-30T05:40:31.234Z,998.49
2022-10-30T05:45:31.165Z,998.57
2022-10-30T05:50:31.119Z,998.49
2022-10-30T05:55:31.082Z,998.49
2022-10-30T06:00:31.008Z,998.41
2022-10-30T06:05:30.957Z,998.40
2022-10-30T06:10:30.893Z,998.38
2022-10-30T06:15:30.875Z,998.41
2022-10-30T06:20:30.778Z,998.43
2022-10-30T06:25:31.117Z,998.49
2022-10-30T06:30:30.700Z,998.55
2022-10-30T06:35:30.643Z,998.54
2022-10-30T06:40:30.564Z,998.54
2022-10-30T06:45:30.509Z,998.58
2022-10-30T06:50:30.455Z,998.70
2022-10-30T06:55:30.398Z,998.79
2022-10-30T07:00:30.411Z,998.80
2022-10-30T07:05:30.289Z,998.89
2022-10-30T07:10:30.233Z,998.87
2022-10-30T07:15:30.249Z,998.85
2022-10-30T07:20:30.306Z,998.79
2022-10-30T07:25:30.065Z,998.85
2022-10-30T07:30:29.995Z,998.79
2022-10-30T07:35:29.967Z,998.74
2022-10-30T07:40:29.905Z,998.76
2022-10-30T07:45:29.845Z,998.73
2022-10-30T07:50:29.789Z,998.76
2022-10-30T07:55:29.754Z,998.73
2022-10-30T08:00:29.697Z,998.77
2022-10-30T08:05:30.385Z,998.67
2022-10-30T08:10:29.566Z,998.78
2022-10-30T08:15:29.534Z,998.84
2022-10-30T08:20:29.455Z,998.76
2022-10-30T08:25:29.403Z,998.72
2022-10-30T08:30:29.347Z,998.81
2022-10-30T08:35:29.361Z,998.78
2022-10-30T08:40:29.245Z,998.68
2022-10-30T08:45:31.240Z,998.72
2022-10-30T08:50:29.127Z,998.62
2022-10-30T08:55:29.113Z,998.58
2022-10-30T09:00:29.055Z,998.53
2022-10-30T09:05:28.974Z,998.49
2022-10-30T09:10:28.927Z,998.51
2022-10-30T09:15:28.887Z,998.49
2022-10-30T09:20:28.816Z,998.39
2022-10-30T09:25:28.761Z,998.39
2022-10-30T09:30:28.706Z,998.35
2022-10-30T09:35:28.675Z,998.39
2022-10-30T09:40:28.582Z,998.30
2022-10-30T09:45:29.958Z,998.22
2022-10-30T09:50:28.484Z,998.26
2022-10-30T09:55:28.449Z,998.27
2022-10-30T10:00:28.374Z,998.26
2022-10-30T10:05:28.317Z,998.29
2022-10-30T10:10:28.259Z,998.30
2022-10-30T10:15:28.230Z,998.34
2022-10-30T10:20:28.150Z,998.32
2022-10-30T10:25:28.091Z,998.28
2022-10-30T10:30:28.043Z,998.24
2022-10-30T10:35:27.998Z,998.27
2022-10-30T10:40:27.930Z,998.25
2022-10-30T10:45:27.856Z,998.22
2022-10-30T10:50:27.811Z,998.29
2022-10-30T10:55:27.780Z,998.27
2022-10-30T11:00:27.707Z,998.24
2022-10-30T11:05:27.650Z,998.21
2022-10-30T11:10:27.602Z,998.16
2022-10-30T11:15:34.604Z,998.05
2022-10-30T11:20:27.490Z,998.04
2022-10-30T11:25:31.176Z,998.04
2022-10-30T11:30:27.385Z,998.08
2022-10-30T11:35:27.348Z,998.04
2022-10-30T11:40:27.275Z,997.91
2022-10-30T11:45:27.220Z,997.87
2022-10-30T11:50:27.169Z,997.84
2022-10-30T11:55:27.128Z,997.81
2022-10-30T12:00:27.056Z,997.86
2022-10-30T12:05:27.003Z,997.88
2022-10-30T12:10:26.958Z,997.84
2022-10-30T12:15:26.907Z,997.93
2022-10-30T12:20:26.845Z,997.87
2022-10-30T12:25:26.791Z,997.87
2022-10-30T12:30:26.735Z,997.84
2022-10-30T12:35:26.704Z,997.82
2022-10-30T12:40:26.630Z,997.85
2022-10-30T12:45:26.595Z,997.78
2022-10-30T12:50:26.524Z,997.69
2022-10-30T12:55:26.477Z,997.76
2022-10-30T13:00:26.411Z,997.73
2022-10-30T13:05:26.357Z,997.73
2022-10-30T13:10:26.305Z,997.76
2022-10-30T13:15:26.372Z,997.70
2022-10-30T13:20:26.200Z,997.57
2022-10-30T13:25:26.142Z,997.60
2022-10-30T13:30:26.090Z,997.51
2022-10-30T13:35:26.050Z,997.50
2022-10-30T13:40:25.986Z,997.46
2022-10-30T13:45:25.911Z,997.45
2022-10-30T13:50:25.867Z,997.47
2022-10-30T13:55:25.834Z,997.44
2022-10-30T14:00:25.761Z,997.51
2022-10-30T14:05:25.705Z,997.45
2022-10-30T14:10:25.661Z,997.50
2022-10-30T14:15:25.615Z,997.53
2022-10-30T14:20:25.542Z,997.57
2022-10-30T14:25:25.498Z,997.60
2022-10-30T14:30:25.418Z,997.63
2022-10-30T14:35:25.397Z,997.53
2022-10-30T14:40:25.329Z,997.49
2022-10-30T14:45:25.270Z,997.39
2022-10-30T14:50:25.213Z,997.45
2022-10-30T14:55:25.181Z,997.50
2022-10-30T15:00:25.101Z,997.46
2022-10-30T15:05:25.092Z,997.57
2022-10-30T15:10:24.977Z,997.48
2022-10-30T15:15:24.958Z,997.51
2022-10-30T15:20:24.881Z,997.51
2022-10-30T15:25:24.834Z,997.57
2022-10-30T15:30:24.773Z,997.48
2022-10-30T15:35:24.742Z,997.54
2022-10-30T15:40:24.667Z,997.62
2022-10-30T15:45:24.614Z,997.65
2022-10-30T15:50:24.544Z,997.73
2022-10-30T15:55:24.532Z,997.84
2022-10-30T16:00:24.486Z,997.89
2022-10-30T16:05:24.401Z,998.06
2022-10-30T16:10:24.345Z,998.16
2022-10-30T16:15:24.313Z,998.12
2022-10-30T16:20:24.244Z,998.26
2022-10-30T16:25:24.187Z,998.27
2022-10-30T16:30:24.129Z,998.28
2022-10-30T16:35:24.098Z,998.34
2022-10-30T16:40:24.027Z,998.37
2022-10-30T16:45:24.100Z,998.43
2022-10-30T16:50:23.916Z,998.47
2022-10-30T16:55:23.880Z,998.62
2022-10-30T17:00:26.996Z,998.79
2022-10-30T17:05:23.751Z,998.87
2022-10-30T17:10:23.697Z,998.92
2022-10-30T17:15:23.786Z,998.95
2022-10-30T17:20:31.411Z,999.07
2022-10-30T17:25:23.543Z,999.07
2022-10-30T17:30:23.483Z,999.16
2022-10-30T17:35:23.438Z,999.23
2022-10-30T17:40:23.365Z,999.34
2022-10-30T17:45:23.318Z,999.45
2022-10-30T17:50:23.260Z,999.51
2022-10-30T17:55:23.232Z,999.58
2022-10-30T18:00:23.165Z,999.68
2022-10-30T18:05:23.097Z,999.63
2022-10-30T18:10:23.039Z,999.73
2022-10-30T18:15:23.002Z,999.85
2022-10-30T18:20:22.932Z,999.86
2022-10-30T18:25:22.880Z,999.73
2022-10-30T18:30:22.820Z,999.83
2022-10-30T18:35:43.779Z,999.86
2022-10-30T18:40:22.904Z,999.98
2022-10-30T18:45:22.653Z,999.98
2022-10-30T18:50:22.601Z,1000.07
2022-10-30T18:55:22.563Z,1000.11
2022-10-30T19:00:22.485Z,1000.14
2022-10-30T19:05:22.433Z,1000.12
2022-10-30T19:10:22.380Z,1000.23
2022-10-30T19:15:22.354Z,1000.16
2022-10-30T19:20:28.255Z,1000.17
2022-10-30T19:25:23.226Z,1000.19
2022-10-30T19:30:22.169Z,1000.26
2022-10-30T19:35:22.126Z,1000.24
2022-10-30T19:40:22.050Z,1000.35
2022-10-30T19:45:21.994Z,1000.41
2022-10-30T19:50:21.941Z,1000.42
2022-10-30T19:55:21.907Z,1000.42
2022-10-30T20:00:21.829Z,1000.48
2022-10-30T20:05:21.776Z,1000.49
2022-10-30T20:10:21.717Z,1000.57
2022-10-30T20:15:21.686Z,1000.54
2022-10-30T20:20:21.611Z,1000.57
2022-10-30T20:25:21.556Z,1000.62
2022-10-30T20:30:21.502Z,1000.60
2022-10-30T20:35:21.468Z,1000.65
2022-10-30T20:40:21.399Z,1000.59
2022-10-30T20:45:21.323Z,1000.76
2022-10-30T20:50:21.286Z,1000.68
2022-10-30T20:55:21.308Z,1000.73
2022-10-30T21:00:21.184Z,1000.83
2022-10-30T21:05:42.632Z,1000.91
2022-10-30T21:10:25.439Z,1000.99
2022-10-30T21:15:22.028Z,1000.92
2022-10-30T21:20:20.954Z,1000.92
2022-10-30T21:25:20.895Z,1000.94
2022-10-30T21:30:20.850Z,1000.97
2022-10-30T21:35:20.821Z,1001.00
2022-10-30T21:40:20.737Z,1001.02
2022-10-30T21:45:20.681Z,1001.12
2022-10-30T21:50:20.711Z,1001.14
2022-10-30T21:55:20.662Z,1001.18
2022-10-30T22:00:20.517Z,1001.32
2022-10-30T22:05:20.457Z,1001.35
2022-10-30T22:10:20.409Z,1001.34
2022-10-30T22:15:20.465Z,1001.45
2022-10-30T22:20:20.297Z,1001.44
2022-10-30T22:25:20.242Z,1001.50
2022-10-30T22:30:20.195Z,1001.42
2022-10-30T22:35:20.164Z,1001.49
2022-10-30T22:40:20.080Z,1001.55
2022-10-30T22:45:20.027Z,1001.54
2022-10-30T22:50:19.965Z,1001.60
2022-10-30T22:55:19.939Z,1001.71
2022-10-30T23:00:19.860Z,1001.61
2022-10-30T23:05:19.803Z,1001.70
2022-10-30T23:10:19.768Z,1001.64
2022-10-30T23:15:19.715Z,1001.67
2022-10-30T23:20:19.639Z,1001.60
2022-10-30T23:25:19.580Z,1001.64
2022-10-30T23:30:19.527Z,1001.73
2022-10-30T23:35:19.493Z,1001.78
2022-10-30T23:40:19.413Z,1001.76
2022-10-30T23:45:19.356Z,1001.74
2022-10-30T23:50:19.300Z,1001.82
2022-10-30T23:55:19.266Z,1001.81
